sensor_id;sensor_type;location;lat;lon;timestamp;pressure;altitude;pressure_sealevel;temperature;humidity
64886;BME280;51514;52.206;5.114;2023-12-14T00:00:25;101077.09;;;8.01;87.27
64886;BME280;51514;52.206;5.114;2023-12-14T00:02:50;101074.41;;;8.01;86.81
64886;BME280;51514;52.206;5.114;2023-12-14T00:05:16;101070.84;;;7.91;87.79
64886;BME280;51514;52.206;5.114;2023-12-14T00:07:41;101077.91;;;7.92;87.63
64886;BME280;51514;52.206;5.114;2023-12-14T00:10:07;101090.06;;;7.86;88.32
64886;BME280;51514;52.206;5.114;2023-12-14T00:12:32;101096.28;;;7.87;88.45
64886;BME280;51514;52.206;5.114;2023-12-14T00:14:58;101096.28;;;7.87;88.05
64886;BME280;51514;52.206;5.114;2023-12-14T00:17:23;101109.56;;;7.88;88.30
64886;BME280;51514;52.206;5.114;2023-12-14T00:19:49;101106.72;;;7.90;88.77
64886;BME280;51514;52.206;5.114;2023-12-14T00:22:14;101110.00;;;7.93;88.47
64886;BME280;51514;52.206;5.114;2023-12-14T00:24:39;101120.03;;;7.91;88.67
64886;BME280;51514;52.206;5.114;2023-12-14T00:27:05;101120.03;;;7.91;88.47
64886;BME280;51514;52.206;5.114;2023-12-14T00:29:30;101125.94;;;7.85;88.51
64886;BME280;51514;52.206;5.114;2023-12-14T00:31:56;101131.91;;;7.89;87.75
64886;BME280;51514;52.206;5.114;2023-12-14T00:34:21;101136.69;;;7.85;88.06
64886;BME280;51514;52.206;5.114;2023-12-14T00:36:46;101147.94;;;7.79;88.21
64886;BME280;51514;52.206;5.114;2023-12-14T00:39:12;101144.69;;;7.76;88.42
64886;BME280;51514;52.206;5.114;2023-12-14T00:41:38;101155.31;;;7.77;87.95
64886;BME280;51514;52.206;5.114;2023-12-14T00:44:03;101159.69;;;7.78;88.46
64886;BME280;51514;52.206;5.114;2023-12-14T00:46:28;101164.22;;;7.78;88.45
64886;BME280;51514;52.206;5.114;2023-12-14T00:48:54;101173.25;;;7.77;87.81
64886;BME280;51514;52.206;5.114;2023-12-14T00:51:19;101180.56;;;7.75;88.27
64886;BME280;51514;52.206;5.114;2023-12-14T00:53:45;101170.81;;;7.74;88.34
64886;BME280;51514;52.206;5.114;2023-12-14T00:56:10;101183.00;;;7.78;88.06
64886;BME280;51514;52.206;5.114;2023-12-14T00:58:35;101189.78;;;7.82;88.39
64886;BME280;51514;52.206;5.114;2023-12-14T01:01:01;101192.22;;;7.85;87.92
64886;BME280;51514;52.206;5.114;2023-12-14T01:03:26;101191.09;;;7.87;88.54
64886;BME280;51514;52.206;5.114;2023-12-14T01:05:51;101192.06;;;7.86;87.69
64886;BME280;51514;52.206;5.114;2023-12-14T01:08:17;101205.75;;;7.83;87.67
64886;BME280;51514;52.206;5.114;2023-12-14T01:10:42;101205.38;;;7.88;87.72
64886;BME280;51514;52.206;5.114;2023-12-14T01:13:08;101207.34;;;7.86;87.63
64886;BME280;51514;52.206;5.114;2023-12-14T01:15:33;101209.97;;;7.76;87.88
64886;BME280;51514;52.206;5.114;2023-12-14T01:17:59;101209.84;;;7.78;87.37
64886;BME280;51514;52.206;5.114;2023-12-14T01:20:24;101205.03;;;7.81;87.41
64886;BME280;51514;52.206;5.114;2023-12-14T01:22:49;101217.03;;;7.77;87.51
64886;BME280;51514;52.206;5.114;2023-12-14T01:25:15;101221.44;;;7.78;86.66
64886;BME280;51514;52.206;5.114;2023-12-14T01:27:40;101232.72;;;7.82;87.06
64886;BME280;51514;52.206;5.114;2023-12-14T01:30:06;101230.78;;;7.84;87.60
64886;BME280;51514;52.206;5.114;2023-12-14T01:32:31;101237.59;;;7.88;87.72
64886;BME280;51514;52.206;5.114;2023-12-14T01:34:57;101239.56;;;7.86;87.67
64886;BME280;51514;52.206;5.114;2023-12-14T01:37:22;101242.97;;;7.88;87.56
64886;BME280;51514;52.206;5.114;2023-12-14T01:39:47;101250.88;;;7.89;87.30
64886;BME280;51514;52.206;5.114;2023-12-14T01:42:13;101250.03;;;7.89;87.57
64886;BME280;51514;52.206;5.114;2023-12-14T01:44:38;101255.25;;;7.90;87.31
64886;BME280;51514;52.206;5.114;2023-12-14T01:47:04;101260.78;;;7.89;87.57
64886;BME280;51514;52.206;5.114;2023-12-14T01:49:29;101267.56;;;7.93;87.36
64886;BME280;51514;52.206;5.114;2023-12-14T01:51:54;101276.59;;;7.92;87.60
64886;BME280;51514;52.206;5.114;2023-12-14T01:54:20;101281.25;;;7.90;87.04
64886;BME280;51514;52.206;5.114;2023-12-14T01:56:45;101288.31;;;7.91;87.36
64886;BME280;51514;52.206;5.114;2023-12-14T01:59:11;101281.13;;;7.91;87.13
64886;BME280;51514;52.206;5.114;2023-12-14T02:01:43;101286.16;;;7.85;87.33
64886;BME280;51514;52.206;5.114;2023-12-14T02:04:08;101292.44;;;7.95;87.19
64886;BME280;51514;52.206;5.114;2023-12-14T02:06:35;101301.50;;;7.94;86.67
64886;BME280;51514;52.206;5.114;2023-12-14T02:09:00;101303.78;;;7.98;86.70
64886;BME280;51514;52.206;5.114;2023-12-14T02:11:26;101315.38;;;7.99;86.83
64886;BME280;51514;52.206;5.114;2023-12-14T02:13:51;101327.44;;;8.04;86.67
64886;BME280;51514;52.206;5.114;2023-12-14T02:16:16;101326.56;;;8.04;86.25
64886;BME280;51514;52.206;5.114;2023-12-14T02:18:42;101334.63;;;8.04;86.05
64886;BME280;51514;52.206;5.114;2023-12-14T02:21:07;101337.97;;;7.96;86.65
64886;BME280;51514;52.206;5.114;2023-12-14T02:23:32;101337.84;;;7.98;86.78
64886;BME280;51514;52.206;5.114;2023-12-14T02:25:59;101334.31;;;7.97;86.28
64886;BME280;51514;52.206;5.114;2023-12-14T02:28:24;101341.75;;;7.94;86.74
64886;BME280;51514;52.206;5.114;2023-12-14T02:30:49;101349.09;;;7.92;86.78
64886;BME280;51514;52.206;5.114;2023-12-14T02:33:15;101351.44;;;7.85;86.57
64886;BME280;51514;52.206;5.114;2023-12-14T02:35:40;101341.56;;;7.86;86.74
64886;BME280;51514;52.206;5.114;2023-12-14T02:38:06;101353.41;;;7.83;86.99
64886;BME280;51514;52.206;5.114;2023-12-14T02:40:31;101358.16;;;7.80;86.54
64886;BME280;51514;52.206;5.114;2023-12-14T02:42:56;101370.16;;;7.76;87.06
64886;BME280;51514;52.206;5.114;2023-12-14T02:45:21;101364.66;;;7.77;87.29
64886;BME280;51514;52.206;5.114;2023-12-14T02:47:47;101368.22;;;7.78;86.72
64886;BME280;51514;52.206;5.114;2023-12-14T02:50:14;101378.72;;;7.69;86.18
64886;BME280;51514;52.206;5.114;2023-12-14T02:52:39;101378.34;;;7.74;86.77
64886;BME280;51514;52.206;5.114;2023-12-14T02:55:05;101377.59;;;7.72;86.31
64886;BME280;51514;52.206;5.114;2023-12-14T02:57:30;101384.56;;;7.75;85.83
64886;BME280;51514;52.206;5.114;2023-12-14T02:59:55;101389.19;;;7.73;86.35
64886;BME280;51514;52.206;5.114;2023-12-14T03:02:22;101397.25;;;7.73;86.44
64886;BME280;51514;52.206;5.114;2023-12-14T03:04:47;101392.59;;;7.75;86.72
64886;BME280;51514;52.206;5.114;2023-12-14T03:07:12;101387.50;;;7.72;86.23
64886;BME280;51514;52.206;5.114;2023-12-14T03:09:41;101395.09;;;7.66;85.71
64886;BME280;51514;52.206;5.114;2023-12-14T03:12:08;101396.31;;;7.62;85.77
64886;BME280;51514;52.206;5.114;2023-12-14T03:14:33;101398.50;;;7.57;85.54
64886;BME280;51514;52.206;5.114;2023-12-14T03:16:59;101396.19;;;7.64;85.70
64886;BME280;51514;52.206;5.114;2023-12-14T03:19:25;101401.06;;;7.59;84.72
64886;BME280;51514;52.206;5.114;2023-12-14T03:21:50;101395.13;;;7.55;85.65
64886;BME280;51514;52.206;5.114;2023-12-14T03:24:15;101402.19;;;7.56;85.83
64886;BME280;51514;52.206;5.114;2023-12-14T03:26:40;101394.13;;;7.56;85.34
64886;BME280;51514;52.206;5.114;2023-12-14T03:29:06;101394.25;;;7.55;85.69
64886;BME280;51514;52.206;5.114;2023-12-14T03:31:33;101389.63;;;7.57;85.36
64886;BME280;51514;52.206;5.114;2023-12-14T03:33:58;101393.28;;;7.56;85.57
64886;BME280;51514;52.206;5.114;2023-12-14T03:36:24;101395.22;;;7.54;85.25
64886;BME280;51514;52.206;5.114;2023-12-14T03:38:51;101399.63;;;7.55;85.66
64886;BME280;51514;52.206;5.114;2023-12-14T03:41:17;101404.03;;;7.56;85.33
64886;BME280;51514;52.206;5.114;2023-12-14T03:43:42;101407.56;;;7.56;85.61
64886;BME280;51514;52.206;5.114;2023-12-14T03:46:07;101400.00;;;7.50;84.87
64886;BME280;51514;52.206;5.114;2023-12-14T03:48:33;101414.03;;;7.54;85.46
64886;BME280;51514;52.206;5.114;2023-12-14T03:51:02;101421.94;;;7.55;84.94
64886;BME280;51514;52.206;5.114;2023-12-14T03:53:28;101426.47;;;7.55;85.11
64886;BME280;51514;52.206;5.114;2023-12-14T03:55:54;101428.53;;;7.51;85.38
64886;BME280;51514;52.206;5.114;2023-12-14T03:58:19;101421.09;;;7.55;84.80
64886;BME280;51514;52.206;5.114;2023-12-14T04:00:45;101421.81;;;7.57;85.24
64886;BME280;51514;52.206;5.114;2023-12-14T04:03:10;101432.16;;;7.61;84.30
64886;BME280;51514;52.206;5.114;2023-12-14T04:05:35;101438.50;;;7.60;84.30
64886;BME280;51514;52.206;5.114;2023-12-14T04:08:01;101442.91;;;7.61;84.05
64886;BME280;51514;52.206;5.114;2023-12-14T04:10:26;101447.28;;;7.62;83.75
64886;BME280;51514;52.206;5.114;2023-12-14T04:12:52;101451.69;;;7.63;84.15
64886;BME280;51514;52.206;5.114;2023-12-14T04:15:17;101456.44;;;7.60;83.59
64886;BME280;51514;52.206;5.114;2023-12-14T04:17:42;101454.63;;;7.60;83.86
64886;BME280;51514;52.206;5.114;2023-12-14T04:20:08;101463.41;;;7.62;83.58
64886;BME280;51514;52.206;5.114;2023-12-14T04:22:34;101469.63;;;7.63;83.86
64886;BME280;51514;52.206;5.114;2023-12-14T04:24:59;101473.03;;;7.65;83.97
64886;BME280;51514;52.206;5.114;2023-12-14T04:27:24;101472.06;;;7.66;83.63
64886;BME280;51514;52.206;5.114;2023-12-14T04:29:53;101472.19;;;7.64;82.72
64886;BME280;51514;52.206;5.114;2023-12-14T04:32:18;101479.25;;;7.65;83.10
64886;BME280;51514;52.206;5.114;2023-12-14T04:34:44;101478.28;;;7.66;83.21
64886;BME280;51514;52.206;5.114;2023-12-14T04:37:09;101488.28;;;7.64;83.39
64886;BME280;51514;52.206;5.114;2023-12-14T04:39:34;101482.91;;;7.64;82.99
64886;BME280;51514;52.206;5.114;2023-12-14T04:42:00;101489.38;;;7.62;83.13
64886;BME280;51514;52.206;5.114;2023-12-14T04:44:25;101506.09;;;7.65;82.61
64886;BME280;51514;52.206;5.114;2023-12-14T04:46:51;101507.81;;;7.66;82.90
64886;BME280;51514;52.206;5.114;2023-12-14T04:49:18;101508.91;;;7.64;82.73
64886;BME280;51514;52.206;5.114;2023-12-14T04:51:44;101505.59;;;7.60;82.84
64886;BME280;51514;52.206;5.114;2023-12-14T04:54:09;101523.41;;;7.61;83.23
64886;BME280;51514;52.206;5.114;2023-12-14T04:56:35;101535.75;;;7.64;82.75
64886;BME280;51514;52.206;5.114;2023-12-14T04:59:00;101542.19;;;7.61;82.42
64886;BME280;51514;52.206;5.114;2023-12-14T05:01:26;101543.91;;;7.62;82.60
64886;BME280;51514;52.206;5.114;2023-12-14T05:03:52;101557.09;;;7.65;83.05
64886;BME280;51514;52.206;5.114;2023-12-14T05:06:17;101558.06;;;7.64;82.43
64886;BME280;51514;52.206;5.114;2023-12-14T05:08:43;101562.56;;;7.64;81.86
64886;BME280;51514;52.206;5.114;2023-12-14T05:11:08;101565.63;;;7.59;82.12
64886;BME280;51514;52.206;5.114;2023-12-14T05:13:34;101572.69;;;7.60;82.03
64886;BME280;51514;52.206;5.114;2023-12-14T05:16:00;101573.78;;;7.58;81.76
64886;BME280;51514;52.206;5.114;2023-12-14T05:18:26;101582.97;;;7.55;81.92
64886;BME280;51514;52.206;5.114;2023-12-14T05:20:52;101589.41;;;7.53;81.39
64886;BME280;51514;52.206;5.114;2023-12-14T05:23:17;101592.31;;;7.50;80.91
64886;BME280;51514;52.206;5.114;2023-12-14T05:25:44;101596.84;;;7.49;80.62
64886;BME280;51514;52.206;5.114;2023-12-14T05:28:09;101606.47;;;7.52;80.84
64886;BME280;51514;52.206;5.114;2023-12-14T05:30:34;101610.03;;;7.52;81.42
64886;BME280;51514;52.206;5.114;2023-12-14T05:33:00;101608.31;;;7.51;81.15
64886;BME280;51514;52.206;5.114;2023-12-14T05:35:26;101615.28;;;7.54;80.71
64886;BME280;51514;52.206;5.114;2023-12-14T05:37:51;101608.31;;;7.51;80.24
64886;BME280;51514;52.206;5.114;2023-12-14T05:40:17;101609.28;;;7.50;79.98
64886;BME280;51514;52.206;5.114;2023-12-14T05:42:42;101613.69;;;7.51;80.10
64886;BME280;51514;52.206;5.114;2023-12-14T05:45:08;101624.53;;;7.50;80.79
64886;BME280;51514;52.206;5.114;2023-12-14T05:47:34;101623.22;;;7.55;80.07
64886;BME280;51514;52.206;5.114;2023-12-14T05:50:00;101634.28;;;7.51;80.12
64886;BME280;51514;52.206;5.114;2023-12-14T05:52:26;101640.63;;;7.50;80.63
64886;BME280;51514;52.206;5.114;2023-12-14T05:54:51;101633.81;;;7.46;80.76
64886;BME280;51514;52.206;5.114;2023-12-14T05:57:17;101642.72;;;7.46;80.40
64886;BME280;51514;52.206;5.114;2023-12-14T05:59:42;101641.72;;;7.47;80.35
64886;BME280;51514;52.206;5.114;2023-12-14T06:02:07;101635.75;;;7.44;80.59
64886;BME280;51514;52.206;5.114;2023-12-14T06:04:33;101644.53;;;7.46;80.67
64886;BME280;51514;52.206;5.114;2023-12-14T06:06:58;101649.16;;;7.44;80.77
64886;BME280;51514;52.206;5.114;2023-12-14T06:09:24;101648.09;;;7.46;80.26
64886;BME280;51514;52.206;5.114;2023-12-14T06:12:02;101658.06;;;7.44;80.70
64886;BME280;51514;52.206;5.114;2023-12-14T06:14:28;101660.00;;;7.42;80.50
64886;BME280;51514;52.206;5.114;2023-12-14T06:16:54;101665.38;;;7.42;80.49
64886;BME280;51514;52.206;5.114;2023-12-14T06:19:20;101665.84;;;7.36;79.65
64886;BME280;51514;52.206;5.114;2023-12-14T06:21:45;101666.84;;;7.35;80.23
64886;BME280;51514;52.206;5.114;2023-12-14T06:24:10;101676.19;;;7.29;80.52
64886;BME280;51514;52.206;5.114;2023-12-14T06:26:43;101686.06;;;7.29;80.36
64886;BME280;51514;52.206;5.114;2023-12-14T06:29:12;101689.50;;;7.31;80.03
64886;BME280;51514;52.206;5.114;2023-12-14T06:31:38;101697.53;;;7.31;80.19
64886;BME280;51514;52.206;5.114;2023-12-14T06:34:04;101703.50;;;7.23;79.38
64886;BME280;51514;52.206;5.114;2023-12-14T06:36:30;101705.44;;;7.21;79.63
64886;BME280;51514;52.206;5.114;2023-12-14T06:38:57;101710.91;;;7.20;79.41
64886;BME280;51514;52.206;5.114;2023-12-14T06:41:22;101713.06;;;7.15;79.08
64886;BME280;51514;52.206;5.114;2023-12-14T06:43:49;101716.84;;;7.12;79.31
64886;BME280;51514;52.206;5.114;2023-12-14T06:46:15;101732.09;;;7.12;78.92
64886;BME280;51514;52.206;5.114;2023-12-14T06:48:40;101738.06;;;7.15;79.72
64886;BME280;51514;52.206;5.114;2023-12-14T06:51:06;101741.59;;;7.16;79.19
64886;BME280;51514;52.206;5.114;2023-12-14T06:53:31;101758.22;;;7.21;79.53
64886;BME280;51514;52.206;5.114;2023-12-14T06:55:56;101758.97;;;7.23;79.24
64886;BME280;51514;52.206;5.114;2023-12-14T06:58:22;101765.91;;;7.25;78.93
64886;BME280;51514;52.206;5.114;2023-12-14T07:00:47;101759.47;;;7.28;79.49
64886;BME280;51514;52.206;5.114;2023-12-14T07:03:13;101769.97;;;7.31;79.57
64886;BME280;51514;52.206;5.114;2023-12-14T07:05:38;101765.34;;;7.33;79.17
64886;BME280;51514;52.206;5.114;2023-12-14T07:08:04;101759.00;;;7.34;79.37
64886;BME280;51514;52.206;5.114;2023-12-14T07:10:29;101773.03;;;7.38;79.72
64886;BME280;51514;52.206;5.114;2023-12-14T07:12:54;101775.38;;;7.42;80.02
64886;BME280;51514;52.206;5.114;2023-12-14T07:15:20;101776.88;;;7.46;79.72
64886;BME280;51514;52.206;5.114;2023-12-14T07:17:45;101782.09;;;7.48;79.52
64886;BME280;51514;52.206;5.114;2023-12-14T07:20:11;101785.75;;;7.47;79.17
64886;BME280;51514;52.206;5.114;2023-12-14T07:22:36;101789.28;;;7.47;79.01
64886;BME280;51514;52.206;5.114;2023-12-14T07:25:02;101791.88;;;7.49;79.40
64886;BME280;51514;52.206;5.114;2023-12-14T07:27:27;101791.75;;;7.50;79.58
64886;BME280;51514;52.206;5.114;2023-12-14T07:29:52;101787.59;;;7.46;79.24
64886;BME280;51514;52.206;5.114;2023-12-14T07:32:18;101791.13;;;7.47;78.70
64886;BME280;51514;52.206;5.114;2023-12-14T07:34:43;101798.56;;;7.43;78.79
64886;BME280;51514;52.206;5.114;2023-12-14T07:37:09;101808.06;;;7.47;79.57
64886;BME280;51514;52.206;5.114;2023-12-14T07:39:34;101802.97;;;7.44;79.04
64886;BME280;51514;52.206;5.114;2023-12-14T07:42:00;101799.31;;;7.45;78.52
64886;BME280;51514;52.206;5.114;2023-12-14T07:44:25;101808.06;;;7.47;78.78
64886;BME280;51514;52.206;5.114;2023-12-14T07:46:51;101813.09;;;7.52;78.80
64886;BME280;51514;52.206;5.114;2023-12-14T07:49:17;101819.97;;;7.56;78.88
64886;BME280;51514;52.206;5.114;2023-12-14T07:51:47;101826.91;;;7.58;79.36
64886;BME280;51514;52.206;5.114;2023-12-14T07:54:13;101830.28;;;7.49;78.42
64886;BME280;51514;52.206;5.114;2023-12-14T07:56:38;101834.69;;;7.50;78.40
64886;BME280;51514;52.206;5.114;2023-12-14T07:59:04;101834.78;;;7.49;78.75
64886;BME280;51514;52.206;5.114;2023-12-14T08:01:32;101832.84;;;7.51;78.18
64886;BME280;51514;52.206;5.114;2023-12-14T08:03:58;101828.25;;;7.53;78.16
64886;BME280;51514;52.206;5.114;2023-12-14T08:06:23;101836.19;;;7.54;78.41
64886;BME280;51514;52.206;5.114;2023-12-14T08:08:48;101845.09;;;7.55;79.24
64886;BME280;51514;52.206;5.114;2023-12-14T08:11:14;101848.63;;;7.55;79.29
64886;BME280;51514;52.206;5.114;2023-12-14T08:13:39;101845.69;;;7.58;79.18
64886;BME280;51514;52.206;5.114;2023-12-14T08:16:05;101851.81;;;7.60;79.15
64886;BME280;51514;52.206;5.114;2023-12-14T08:18:31;101837.41;;;7.61;78.88
64886;BME280;51514;52.206;5.114;2023-12-14T08:20:57;101842.78;;;7.61;78.58
64886;BME280;51514;52.206;5.114;2023-12-14T08:23:22;101842.56;;;7.64;78.05
64886;BME280;51514;52.206;5.114;2023-12-14T08:25:48;101844.50;;;7.62;77.63
64886;BME280;51514;52.206;5.114;2023-12-14T08:28:13;101857.72;;;7.65;78.57
64886;BME280;51514;52.206;5.114;2023-12-14T08:30:39;101863.63;;;7.58;77.79
64886;BME280;51514;52.206;5.114;2023-12-14T08:33:04;101862.75;;;7.57;77.27
64886;BME280;51514;52.206;5.114;2023-12-14T08:35:29;101866.94;;;7.61;77.95
64886;BME280;51514;52.206;5.114;2023-12-14T08:37:55;101882.31;;;7.59;77.31
64886;BME280;51514;52.206;5.114;2023-12-14T08:40:21;101894.75;;;7.60;77.91
64886;BME280;51514;52.206;5.114;2023-12-14T08:42:47;101895.59;;;7.61;77.66
64886;BME280;51514;52.206;5.114;2023-12-14T08:45:12;101891.09;;;7.61;77.97
64886;BME280;51514;52.206;5.114;2023-12-14T08:47:38;101899.69;;;7.66;78.00
64886;BME280;51514;52.206;5.114;2023-12-14T08:50:04;101910.16;;;7.69;78.35
64886;BME280;51514;52.206;5.114;2023-12-14T08:52:29;101902.88;;;7.72;77.65
64886;BME280;51514;52.206;5.114;2023-12-14T08:54:55;101911.66;;;7.74;77.01
64886;BME280;51514;52.206;5.114;2023-12-14T08:57:20;101907.78;;;7.78;77.25
64886;BME280;51514;52.206;5.114;2023-12-14T08:59:46;101907.31;;;7.84;77.58
64886;BME280;51514;52.206;5.114;2023-12-14T09:02:12;101910.75;;;7.86;78.16
64886;BME280;51514;52.206;5.114;2023-12-14T09:04:37;101913.31;;;7.87;78.42
64886;BME280;51514;52.206;5.114;2023-12-14T09:07:03;101928.84;;;7.95;77.79
64886;BME280;51514;52.206;5.114;2023-12-14T09:09:29;101920.31;;;8.01;77.40
64886;BME280;51514;52.206;5.114;2023-12-14T09:11:54;101928.16;;;8.04;77.79
64886;BME280;51514;52.206;5.114;2023-12-14T09:14:20;101931.91;;;8.01;77.31
64886;BME280;51514;52.206;5.114;2023-12-14T09:16:45;101933.88;;;7.99;75.97
64886;BME280;51514;52.206;5.114;2023-12-14T09:19:11;101944.00;;;7.96;75.92
64886;BME280;51514;52.206;5.114;2023-12-14T09:21:36;101950.88;;;8.00;75.48
64886;BME280;51514;52.206;5.114;2023-12-14T09:24:01;101948.81;;;8.15;75.90
64886;BME280;51514;52.206;5.114;2023-12-14T09:26:27;101950.03;;;8.34;75.69
64886;BME280;51514;52.206;5.114;2023-12-14T09:28:52;101951.44;;;8.51;74.88
64886;BME280;51514;52.206;5.114;2023-12-14T09:31:17;101959.66;;;8.72;74.96
64886;BME280;51514;52.206;5.114;2023-12-14T09:33:43;101959.19;;;8.89;74.37
64886;BME280;51514;52.206;5.114;2023-12-14T09:36:08;101978.03;;;9.11;73.99
64886;BME280;51514;52.206;5.114;2023-12-14T09:38:34;101974.59;;;9.32;73.52
64886;BME280;51514;52.206;5.114;2023-12-14T09:40:59;101983.53;;;9.43;72.61
64886;BME280;51514;52.206;5.114;2023-12-14T09:43:25;101982.22;;;9.49;71.88
64886;BME280;51514;52.206;5.114;2023-12-14T09:45:51;101984.78;;;9.50;71.45
64886;BME280;51514;52.206;5.114;2023-12-14T09:48:16;101980.84;;;9.55;71.19
64886;BME280;51514;52.206;5.114;2023-12-14T09:50:43;101986.13;;;9.45;69.00
64886;BME280;51514;52.206;5.114;2023-12-14T09:53:08;101990.41;;;9.47;69.59
64886;BME280;51514;52.206;5.114;2023-12-14T09:55:34;101986.22;;;9.55;68.51
64886;BME280;51514;52.206;5.114;2023-12-14T09:57:59;101996.13;;;9.54;67.90
64886;BME280;51514;52.206;5.114;2023-12-14T10:00:37;102004.19;;;9.65;68.42
64886;BME280;51514;52.206;5.114;2023-12-14T10:05:47;102013.47;;;9.95;68.42
64886;BME280;51514;52.206;5.114;2023-12-14T10:08:14;102020.69;;;9.94;67.59
64886;BME280;51514;52.206;5.114;2023-12-14T10:10:39;102011.75;;;9.94;68.28
64886;BME280;51514;52.206;5.114;2023-12-14T10:13:04;102015.78;;;9.88;68.08
64886;BME280;51514;52.206;5.114;2023-12-14T10:15:40;102022.06;;;9.77;67.33
64886;BME280;51514;52.206;5.114;2023-12-14T10:18:06;102016.44;;;9.80;68.32
64886;BME280;51514;52.206;5.114;2023-12-14T10:20:31;102030.88;;;9.79;68.42
64886;BME280;51514;52.206;5.114;2023-12-14T10:22:57;102023.91;;;9.77;68.95
64886;BME280;51514;52.206;5.114;2023-12-14T10:25:22;102019.59;;;9.74;68.50
64886;BME280;51514;52.206;5.114;2023-12-14T10:27:48;102026.47;;;9.67;67.57
64886;BME280;51514;52.206;5.114;2023-12-14T10:30:16;102025.25;;;9.71;68.35
64886;BME280;51514;52.206;5.114;2023-12-14T10:32:41;102035.66;;;9.76;68.26
64886;BME280;51514;52.206;5.114;2023-12-14T10:35:07;102033.81;;;9.76;68.72
64886;BME280;51514;52.206;5.114;2023-12-14T10:37:37;102041.16;;;9.74;69.09
64886;BME280;51514;52.206;5.114;2023-12-14T10:40:05;102041.16;;;9.74;68.56
64886;BME280;51514;52.206;5.114;2023-12-14T10:42:32;102041.78;;;9.78;68.61
64886;BME280;51514;52.206;5.114;2023-12-14T10:45:02;102047.38;;;9.86;67.83
64886;BME280;51514;52.206;5.114;2023-12-14T10:47:28;102054.00;;;9.93;67.58
64886;BME280;51514;52.206;5.114;2023-12-14T10:49:54;102049.31;;;10.06;66.70
64886;BME280;51514;52.206;5.114;2023-12-14T10:52:22;102047.34;;;10.19;67.08
64886;BME280;51514;52.206;5.114;2023-12-14T10:54:54;102041.84;;;10.10;65.70
64886;BME280;51514;52.206;5.114;2023-12-14T10:57:21;102049.31;;;10.06;66.68
64886;BME280;51514;52.206;5.114;2023-12-14T10:59:49;102048.69;;;10.14;66.41
64886;BME280;51514;52.206;5.114;2023-12-14T11:02:14;102049.44;;;10.27;66.46
64886;BME280;51514;52.206;5.114;2023-12-14T11:04:58;102047.63;;;10.48;66.20
64886;BME280;51514;52.206;5.114;2023-12-14T11:07:49;102055.41;;;10.63;65.50
64886;BME280;51514;52.206;5.114;2023-12-14T11:10:15;102048.66;;;10.68;65.93
64886;BME280;51514;52.206;5.114;2023-12-14T11:12:51;102053.69;;;10.61;65.83
64886;BME280;51514;52.206;5.114;2023-12-14T11:15:21;102059.06;;;10.61;65.54
64886;BME280;51514;52.206;5.114;2023-12-14T11:23:15;102058.97;;;10.84;65.55
64886;BME280;51514;52.206;5.114;2023-12-14T11:25:43;102061.03;;;10.91;64.33
64886;BME280;51514;52.206;5.114;2023-12-14T11:28:09;102063.25;;;10.86;64.11
64886;BME280;51514;52.206;5.114;2023-12-14T11:30:35;102057.13;;;10.84;63.53
64886;BME280;51514;52.206;5.114;2023-12-14T11:33:01;102058.66;;;10.77;63.03
64886;BME280;51514;52.206;5.114;2023-12-14T11:35:27;102062.66;;;10.83;62.73
64886;BME280;51514;52.206;5.114;2023-12-14T11:37:52;102066.94;;;10.85;62.87
64886;BME280;51514;52.206;5.114;2023-12-14T11:40:18;102073.66;;;10.91;63.05
64886;BME280;51514;52.206;5.114;2023-12-14T11:43:00;102076.56;;;10.78;63.72
64886;BME280;51514;52.206;5.114;2023-12-14T11:45:26;102085.03;;;10.74;63.85
64886;BME280;51514;52.206;5.114;2023-12-14T11:47:52;102087.50;;;10.66;64.29
64886;BME280;51514;52.206;5.114;2023-12-14T11:50:18;102084.50;;;10.59;64.28
64886;BME280;51514;52.206;5.114;2023-12-14T11:52:43;102093.94;;;10.53;65.17
64886;BME280;51514;52.206;5.114;2023-12-14T11:55:12;102098.13;;;10.46;65.83
64886;BME280;51514;52.206;5.114;2023-12-14T11:57:37;102097.94;;;10.38;65.87
64886;BME280;51514;52.206;5.114;2023-12-14T12:00:04;102096.69;;;10.31;65.87
64886;BME280;51514;52.206;5.114;2023-12-14T12:02:29;102084.72;;;10.24;66.07
64886;BME280;51514;52.206;5.114;2023-12-14T12:04:55;102096.94;;;10.17;66.07
64886;BME280;51514;52.206;5.114;2023-12-14T12:07:20;102100.47;;;10.17;66.59
64886;BME280;51514;52.206;5.114;2023-12-14T12:09:46;102091.69;;;10.15;67.13
64886;BME280;51514;52.206;5.114;2023-12-14T12:12:12;102107.25;;;10.12;66.98
64886;BME280;51514;52.206;5.114;2023-12-14T12:14:39;102107.59;;;10.07;67.43
64886;BME280;51514;52.206;5.114;2023-12-14T12:17:05;102109.09;;;10.00;67.73
64886;BME280;51514;52.206;5.114;2023-12-14T12:19:33;102111.16;;;9.97;67.71
64886;BME280;51514;52.206;5.114;2023-12-14T12:21:59;102099.19;;;9.89;68.16
64886;BME280;51514;52.206;5.114;2023-12-14T12:24:25;102103.94;;;9.86;68.71
64886;BME280;51514;52.206;5.114;2023-12-14T12:26:50;102112.41;;;9.81;68.36
64886;BME280;51514;52.206;5.114;2023-12-14T12:29:16;102110.72;;;9.69;69.31
64886;BME280;51514;52.206;5.114;2023-12-14T12:31:41;102110.19;;;9.64;69.66
64886;BME280;51514;52.206;5.114;2023-12-14T12:34:08;102106.16;;;9.59;69.79
64886;BME280;51514;52.206;5.114;2023-12-14T12:36:33;102113.63;;;9.55;69.80
64886;BME280;51514;52.206;5.114;2023-12-14T12:38:58;102109.47;;;9.51;70.17
64886;BME280;51514;52.206;5.114;2023-12-14T12:41:24;102111.44;;;9.49;70.52
64886;BME280;51514;52.206;5.114;2023-12-14T12:43:49;102106.03;;;9.49;70.57
64886;BME280;51514;52.206;5.114;2023-12-14T12:46:14;102107.75;;;9.50;70.42
64886;BME280;51514;52.206;5.114;2023-12-14T12:48:40;102102.38;;;9.50;70.55
64886;BME280;51514;52.206;5.114;2023-12-14T12:51:05;102101.75;;;9.46;70.58
64886;BME280;51514;52.206;5.114;2023-12-14T12:53:30;102100.28;;;9.42;70.85
64886;BME280;51514;52.206;5.114;2023-12-14T12:55:57;102100.91;;;9.46;71.22
64886;BME280;51514;52.206;5.114;2023-12-14T12:58:22;102108.72;;;9.38;70.74
64886;BME280;51514;52.206;5.114;2023-12-14T13:00:48;102118.00;;;9.34;70.78